Terminal Aerodrome Forecast
Issued by NWS

Home | Current Version | Previous Version | Text Only | Print | Product List | Glossary On
Versions: 1 2 3 4 5 6 7 8 9 10 11 12 13 14 15 16 17 18
339
FTUS41 KGYX 221936 AAA
TAFRKD
TAF AMD
KRKD 221936Z 2220/2318 31020G32KT P6SM FEW070
      TEMPO 2220/2221 3SM -SN BKN035
     FM230300 31009G15KT P6SM SKC
     FM231300 29014G24KT P6SM SKC=

USA.gov is the U.S. government's official web portal to all federal, state and local government web resources and services.